Terminal Aerodrome Forecast
Issued by NWS

Home | Current Version | Previous Version | Text Only | Print | Product List | Glossary On
Versions: 1 2 3 4 5 6 7 8 9 10 11 12 13
000
FTUS45 KLKN 281123
TAFEKO
TAF
KEKO 281123Z 2812/0112 23005KT P6SM VCSH OVC050
     FM282000 25013G23KT P6SM VCSH BKN050
     FM010200 25006KT P6SM BKN080=

USA.gov is the U.S. government's official web portal to all federal, state and local government web resources and services.